Time;durP1;ratioP1;P1;durP2;ratioP2;P2;SDS_P1;SDS_P2;PMS_P1;PMS_P2;Temp;Humidity;BMP_temperature;BMP_pressure;BME280_temperature;BME280_humidity;BME280_pressure;Samples;Min_cycle;Max_cycle;Signal;HPM_P1;HPM_P2
2022/01/23 11:10:15;;;;;;;0.10;0.10;;;7.20;99.90;;;;;;6249839;23;20350;-84
2022/01/23 11:18:04;;;;;;;0.10;0.10;;;7.20;99.90;;;;;;6216707;23;20395;-86
2022/01/23 11:20:35;;;;;;;0.10;0.10;;;7.30;99.90;;;;;;6190425;23;20075;-86
2022/01/23 11:23:10;;;;;;;0.10;0.10;;;7.30;99.90;;;;;;6216936;23;20024;-87
2022/01/23 11:25:39;;;;;;;0.10;0.10;;;7.40;99.90;;;;;;6189619;23;20012;-87
2022/01/23 11:28:06;;;;;;;0.10;0.10;;;7.30;99.90;;;;;;6189290;23;20397;-84
2022/01/23 11:30:38;;;;;;;0.10;0.10;;;7.40;99.90;;;;;;6189696;23;20395;-88
2022/01/23 11:33:09;;;;;;;0.10;0.10;;;7.40;99.90;;;;;;6214096;23;20016;-87
2022/01/23 11:35:36;;;;;;;0.10;0.10;;;;;;;;;;6189449;23;20017;-85
2022/01/23 11:38:10;;;;;;;0.10;0.10;;;;;;;;;;6188525;23;20021;-86
2022/01/23 11:50:40;;;;;;;0.10;0.10;;;7.50;99.90;;;;;;6216559;23;20020;-85
2022/01/23 11:53:45;;;;;;;0.10;0.10;;;7.60;99.90;;;;;;6214576;23;20091;-86
2022/01/23 11:55:04;;;;;;;0.10;0.10;;;7.60;99.90;;;;;;6225999;23;20086;-86
2022/01/23 11:57:42;;;;;;;0.10;0.10;;;7.60;99.90;;;;;;6188324;23;20019;-85
2022/01/23 12:00:13;;;;;;;0.10;0.10;;;7.60;99.90;;;;;;6165428;23;20020;-87
2022/01/23 12:02:43;;;;;;;0.10;0.10;;;7.60;99.90;;;;;;6188102;23;20020;-86
2022/01/23 12:05:25;;;;;;;0.10;0.10;;;7.60;99.90;;;;;;6189317;23;20050;-86
2022/01/23 12:08:34;;;;;;;0.10;0.10;;;7.70;99.90;;;;;;6163952;23;20016;-85
2022/01/23 12:17:05;;;;;;;0.10;0.10;;;7.70;99.90;;;;;;6188536;23;20021;-85
2022/01/23 12:19:39;;;;;;;0.10;0.10;;;7.70;99.90;;;;;;6196833;23;20016;-87
2022/01/23 12:22:23;;;;;;;0.10;0.10;;;7.80;99.90;;;;;;6164140;23;20028;-86
2022/01/23 12:24:52;;;;;;;0.10;0.10;;;7.80;99.90;;;;;;6225405;23;20074;-87
2022/01/23 12:27:24;;;;;;;0.00;0.00;;;7.70;99.90;;;;;;6189504;23;20474;-85
2022/01/23 12:29:53;;;;;;;0.10;0.10;;;7.80;99.90;;;;;;6213862;23;20016;-86
2022/01/23 12:32:29;;;;;;;0.10;0.10;;;7.70;99.90;;;;;;6184970;23;20059;-82
2022/01/23 12:34:57;;;;;;;0.10;0.10;;;7.80;99.90;;;;;;6187207;23;20259;-86
2022/01/23 12:37:25;;;;;;;0.10;0.10;;;;;;;;;;6188579;23;20017;-87
2022/01/23 12:40:24;;;;;;;0.10;0.10;;;7.80;99.90;;;;;;6188702;23;20567;-86
2022/01/23 12:43:06;;;;;;;0.10;0.10;;;7.80;99.90;;;;;;6188001;23;20029;-87
2022/01/23 12:45:54;;;;;;;0.10;0.10;;;7.80;99.90;;;;;;6186765;23;20016;-87
2022/01/23 12:48:43;;;;;;;0.10;0.10;;;7.80;99.90;;;;;;6185529;23;20090;-84
2022/01/23 12:51:32;;;;;;;0.10;0.10;;;7.90;99.90;;;;;;6162134;23;20031;-84
2022/01/23 12:54:21;;;;;;;0.10;0.10;;;7.80;99.90;;;;;;6212974;23;20024;-87
2022/01/23 12:56:50;;;;;;;0.10;0.10;;;7.80;99.90;;;;;;6186439;23;20013;-83
2022/01/23 12:59:27;;;;;;;0.10;0.10;;;7.80;99.90;;;;;;6184562;23;20025;-86
2022/01/23 13:02:01;;;;;;;0.10;0.10;;;7.90;99.90;;;;;;6186200;23;20418;-87
2022/01/23 13:04:39;;;;;;;0.10;0.10;;;7.90;99.90;;;;;;6185785;23;20086;-86
2022/01/23 13:07:30;;;;;;;0.10;0.10;;;7.90;99.90;;;;;;6186884;23;20013;-85
2022/01/23 13:10:08;;;;;;;0.10;0.10;;;7.90;99.90;;;;;;6186251;23;20021;-86
2022/01/23 13:15:44;;;;;;;0.10;0.10;;;7.90;99.90;;;;;;6213471;23;20025;-86
2022/01/23 13:32:10;;;;;;;0.10;0.10;;;7.80;99.90;;;;;;6215006;23;20020;-86
2022/01/23 13:34:36;;;;;;;0.10;0.10;;;7.80;99.90;;;;;;6213716;23;20043;-86
2022/01/23 13:37:06;;;;;;;0.10;0.10;;;7.80;99.90;;;;;;6190261;23;20008;-84
2022/01/23 13:39:40;;;;;;;0.10;0.10;;;7.80;99.90;;;;;;6190238;23;20023;-85
2022/01/23 13:42:25;;;;;;;0.10;0.10;;;7.80;99.90;;;;;;6215753;23;20055;-86
2022/01/23 13:48:15;;;;;;;0.10;0.10;;;8.00;99.90;;;;;;6189392;23;20016;-86
2022/01/23 13:53:38;;;;;;;0.10;0.10;;;7.90;99.90;;;;;;6190311;23;20028;-87
2022/01/23 13:59:13;;;;;;;0.10;0.10;;;7.90;99.90;;;;;;6216234;23;20459;-86
2022/01/23 14:04:15;;;;;;;0.10;0.10;;;7.90;99.90;;;;;;6227244;23;20021;-86
2022/01/23 14:06:44;;;;;;;0.10;0.10;;;8.00;99.90;;;;;;6188545;23;20017;-85
2022/01/23 14:09:12;;;;;;;0.10;0.10;;;7.90;99.90;;;;;;6187714;23;20495;-86
2022/01/23 14:11:43;;;;;;;0.10;0.10;;;;;;;;;;6187389;23;20028;-86
2022/01/23 14:14:12;;;;;;;0.10;0.10;;;7.90;99.90;;;;;;6188931;23;20094;-85
2022/01/23 14:16:39;;;;;;;0.10;0.10;;;7.90;99.90;;;;;;6187620;23;20099;-86
2022/01/23 14:19:18;;;;;;;0.10;0.10;;;7.90;99.90;;;;;;6188485;23;20016;-87
2022/01/23 14:21:49;;;;;;;0.10;0.10;;;7.90;99.90;;;;;;6212248;23;20020;-85
2022/01/23 14:24:24;;;;;;;0.10;0.10;;;7.90;99.90;;;;;;6187051;23;20496;-85
2022/01/23 14:27:00;;;;;;;0.10;0.10;;;7.90;99.90;;;;;;6187380;23;20555;-85
2022/01/23 14:29:28;;;;;;;0.10;0.10;;;7.90;99.90;;;;;;6185540;23;20075;-85
2022/01/23 14:32:13;;;;;;;0.10;0.10;;;7.90;99.90;;;;;;6184689;23;20029;-87
2022/01/23 14:34:41;;;;;;;0.10;0.10;;;7.90;99.90;;;;;;6185979;23;20024;-87
2022/01/23 14:37:10;;;;;;;0.10;0.10;;;7.90;99.90;;;;;;6184354;23;20016;-85
2022/01/23 14:39:37;;;;;;;0.10;0.10;;;;;;;;;;6186024;23;20020;-86
2022/01/23 14:42:14;;;;;;;0.10;0.10;;;7.90;99.90;;;;;;6188224;23;20025;-88
2022/01/23 14:44:42;;;;;;;0.10;0.10;;;;;;;;;;6186393;23;20028;-85
2022/01/23 14:47:10;;;;;;;0.10;0.10;;;7.80;99.90;;;;;;6222979;23;20025;-86
2022/01/23 14:49:38;;;;;;;0.10;0.10;;;7.80;99.90;;;;;;6161089;23;20310;-86
2022/01/23 14:52:10;;;;;;;0.10;0.10;;;7.80;99.90;;;;;;6186216;23;20035;-87
2022/01/23 14:54:38;;;;;;;0.10;0.10;;;7.90;99.90;;;;;;6189146;23;20020;-86
2022/01/23 14:57:08;;;;;;;0.10;0.10;;;7.90;99.90;;;;;;6215711;23;20383;-86
2022/01/23 14:59:36;;;;;;;0.10;0.10;;;7.90;99.90;;;;;;6186874;23;20027;-87
2022/01/23 15:02:05;;;;;;;0.10;0.10;;;7.90;99.90;;;;;;6213669;23;20020;-84
2022/01/23 15:04:39;;;;;;;0.10;0.10;;;7.80;99.90;;;;;;6209574;23;20060;-86
2022/01/23 15:07:13;;;;;;;0.00;0.00;;;;;;;;;;6187179;23;20382;-86
2022/01/23 15:09:42;;;;;;;0.10;0.10;;;7.80;99.90;;;;;;6204355;23;20471;-85
2022/01/23 15:12:11;;;;;;;0.10;0.10;;;7.80;99.90;;;;;;6211253;23;20027;-85
2022/01/23 15:14:38;;;;;;;0.10;0.10;;;;;;;;;;6224128;23;20024;-87
2022/01/23 15:17:06;;;;;;;0.10;0.10;;;;;;;;;;6213222;23;20016;-85
2022/01/23 15:19:33;;;;;;;0.10;0.10;;;;;;;;;;6210296;23;20100;-86
2022/01/23 15:22:01;;;;;;;0.10;0.10;;;;;;;;;;6212139;23;20017;-86
2022/01/23 15:24:28;;;;;;;0.10;0.10;;;;;;;;;;6221773;23;20024;-87
2022/01/23 15:26:56;;;;;;;0.10;0.10;;;7.80;99.90;;;;;;6211651;23;20020;-86
2022/01/23 15:29:23;;;;;;;0.10;0.10;;;7.80;99.90;;;;;;6209031;23;20333;-85
2022/01/23 15:31:50;;;;;;;0.10;0.10;;;;;;;;;;6212643;23;20024;-86
2022/01/23 15:34:19;;;;;;;0.10;0.10;;;;;;;;;;6209878;23;20455;-86
2022/01/23 15:36:47;;;;;;;0.10;0.10;;;;;;;;;;6211168;23;20028;-86
2022/01/23 15:39:15;;;;;;;0.10;0.10;;;;;;;;;;6210742;23;20431;-86
2022/01/23 15:41:42;;;;;;;0.10;0.10;;;7.70;99.90;;;;;;6213193;23;20021;-86
2022/01/23 15:44:11;;;;;;;0.10;0.10;;;7.70;99.90;;;;;;6209837;23;20024;-86
2022/01/23 15:46:38;;;;;;;0.10;0.10;;;7.70;99.90;;;;;;6184830;23;20099;-87
2022/01/23 15:49:07;;;;;;;0.10;0.10;;;7.70;99.90;;;;;;6209642;23;20024;-86
2022/01/23 15:51:34;;;;;;;0.10;0.10;;;;;;;;;;6211492;23;20021;-85
2022/01/23 15:54:02;;;;;;;0.10;0.10;;;;;;;;;;6211002;23;20451;-85
2022/01/23 15:56:29;;;;;;;0.10;0.10;;;7.70;99.90;;;;;;6211794;23;20024;-85
2022/01/23 15:58:56;;;;;;;0.10;0.10;;;7.70;99.90;;;;;;6209919;23;20021;-85
2022/01/23 16:01:24;;;;;;;0.10;0.10;;;7.70;99.90;;;;;;6237837;23;20379;-87
2022/01/23 16:03:51;;;;;;;0.10;0.10;;;;;;;;;;6213008;23;20017;-86
2022/01/23 16:06:20;;;;;;;0.10;0.10;;;;;;;;;;6212028;23;20095;-86
2022/01/23 16:08:50;;;;;;;0.10;0.10;;;7.70;99.90;;;;;;6210237;23;20020;-86
2022/01/23 16:11:17;;;;;;;0.10;0.10;;;;;;;;;;6179570;23;20213;-87
2022/01/23 16:13:44;;;;;;;0.10;0.10;;;;;;;;;;6218123;23;20032;-85
2022/01/23 16:16:12;;;;;;;0.10;0.10;;;;;;;;;;6211161;23;20020;-85
2022/01/23 16:18:41;;;;;;;0.10;0.10;;;7.60;99.90;;;;;;6208645;23;20099;-87
2022/01/23 16:21:09;;;;;;;0.10;0.10;;;7.60;99.90;;;;;;6208485;23;20020;-87
2022/01/23 16:23:36;;;;;;;0.10;0.10;;;7.60;99.90;;;;;;6209153;23;20025;-86
2022/01/23 16:26:10;;;;;;;0.10;0.10;;;7.60;99.90;;;;;;6210310;23;20035;-87
2022/01/23 16:28:37;;;;;;;0.10;0.10;;;7.60;99.90;;;;;;6208553;23;20009;-88
2022/01/23 16:31:05;;;;;;;0.10;0.10;;;7.60;99.90;;;;;;6209823;23;20359;-87
2022/01/23 16:33:33;;;;;;;0.10;0.10;;;;;;;;;;6181602;23;20112;-85
2022/01/23 16:36:02;;;;;;;0.10;0.10;;;7.60;99.90;;;;;;6220334;23;20046;-86
2022/01/23 16:38:29;;;;;;;0.10;0.10;;;7.60;99.90;;;;;;6209262;23;20012;-87
2022/01/23 16:40:55;;;;;;;0.10;0.10;;;7.60;99.90;;;;;;6185628;23;20028;-83
2022/01/23 16:43:24;;;;;;;0.10;0.10;;;7.60;99.90;;;;;;6207888;23;20016;-85
2022/01/23 16:45:52;;;;;;;0.10;0.10;;;7.60;99.90;;;;;;6186426;23;20024;-87
2022/01/23 16:48:20;;;;;;;0.10;0.10;;;7.50;99.90;;;;;;6209241;23;20088;-86
2022/01/23 16:50:53;;;;;;;0.10;0.10;;;;;;;;;;6188234;23;20020;-86
2022/01/23 16:53:21;;;;;;;0.10;0.10;;;7.60;99.90;;;;;;6212714;23;20024;-85
2022/01/23 16:55:56;;;;;;;0.10;0.10;;;;;;;;;;6208548;23;20475;-86
2022/01/23 16:58:24;;;;;;;0.10;0.10;;;7.60;99.90;;;;;;6218000;23;20020;-87
2022/01/23 17:00:51;;;;;;;0.10;0.10;;;;;;;;;;6209441;23;20016;-87
2022/01/23 17:03:19;;;;;;;0.10;0.10;;;7.50;99.90;;;;;;6211338;23;20024;-85
2022/01/23 17:05:46;;;;;;;0.10;0.10;;;7.50;99.90;;;;;;6187138;23;20116;-84
2022/01/23 17:08:13;;;;;;;0.10;0.10;;;7.50;99.90;;;;;;6215873;23;20047;-88
2022/01/23 17:10:42;;;;;;;0.10;0.10;;;7.50;99.90;;;;;;6213804;23;20028;-90
2022/01/23 17:13:09;;;;;;;0.00;0.00;;;7.50;99.90;;;;;;6211238;23;20506;-87
2022/01/23 17:15:36;;;;;;;0.10;0.10;;;7.50;99.90;;;;;;6217551;23;20020;-90
2022/01/23 17:18:04;;;;;;;0.03;0.03;;;7.50;99.90;;;;;;6188901;23;20017;-88
2022/01/23 17:23:25;;;;;;;0.10;0.10;;;7.50;99.90;;;;;;6267892;22;20055;-88
2022/01/23 17:26:09;;;;;;;0.10;0.10;;;7.50;99.90;;;;;;6249733;22;20020;-89
2022/01/23 17:29:24;;;;;;;0.10;0.10;;;7.40;99.90;;;;;;6256233;22;20018;-90
2022/01/23 17:33:39;;;;;;;0.10;0.10;;;7.40;99.90;;;;;;6194431;23;20036;-90
2022/01/23 17:36:35;;;;;;;0.10;0.10;;;7.40;99.90;;;;;;6187697;23;20103;-90
2022/01/23 17:39:10;;;;;;;0.10;0.10;;;;;;;;;;6189443;23;20024;-91
2022/01/23 17:41:40;;;;;;;0.10;0.10;;;7.40;99.90;;;;;;6217232;23;20089;-89
2022/01/23 17:44:07;;;;;;;0.10;0.10;;;7.40;99.90;;;;;;6216508;23;20020;-90
2022/01/23 17:46:36;;;;;;;0.10;0.10;;;7.40;99.90;;;;;;6217219;23;20047;-89
2022/01/23 17:49:07;;;;;;;0.10;0.10;;;7.40;99.90;;;;;;6192659;23;20071;-88
2022/01/23 17:51:35;;;;;;;0.10;0.10;;;7.40;99.90;;;;;;6143856;23;20047;-89
2022/01/23 17:54:03;;;;;;;0.10;0.10;;;7.40;99.90;;;;;;6192025;23;20032;-89
2022/01/23 17:56:30;;;;;;;0.10;0.10;;;7.70;99.90;;;;;;6192397;23;20024;-89
2022/01/23 17:58:59;;;;;;;0.10;0.10;;;7.40;99.90;;;;;;6191988;23;20013;-89
2022/01/23 18:01:26;;;;;;;0.10;0.10;;;7.40;99.90;;;;;;6192477;23;20037;-89
2022/01/23 18:03:53;;;;;;;0.10;0.10;;;;;;;;;;6218214;23;20025;-89
2022/01/23 18:06:28;;;;;;;0.10;0.10;;;7.40;99.90;;;;;;6193226;23;20070;-89
2022/01/23 18:08:58;;;;;;;0.10;0.10;;;7.30;99.90;;;;;;6193211;23;20344;-89
2022/01/23 18:11:25;;;;;;;0.10;0.10;;;;;;;;;;6194981;23;20020;-89
2022/01/23 18:13:57;;;;;;;0.10;0.10;;;7.40;99.90;;;;;;6222634;23;20032;-89
2022/01/23 18:16:28;;;;;;;0.10;0.10;;;7.40;99.90;;;;;;6193565;23;20115;-89
2022/01/23 18:18:56;;;;;;;0.10;0.10;;;7.40;99.90;;;;;;6192307;23;20012;-89
2022/01/23 18:21:43;;;;;;;0.10;0.10;;;7.40;99.90;;;;;;6196069;23;20031;-90
2022/01/23 18:24:10;;;;;;;0.10;0.10;;;7.40;99.90;;;;;;6205063;23;20514;-91
2022/01/23 18:26:39;;;;;;;0.10;0.10;;;7.40;99.90;;;;;;6241249;23;20328;-88
2022/01/23 18:29:08;;;;;;;0.10;0.10;;;7.30;99.90;;;;;;6241387;23;20099;-89
2022/01/23 18:31:37;;;;;;;0.10;0.10;;;7.30;99.90;;;;;;6190785;23;20024;-89
2022/01/23 18:34:05;;;;;;;0.10;0.10;;;7.30;99.90;;;;;;6216165;23;20024;-90
2022/01/23 18:36:34;;;;;;;0.10;0.10;;;7.30;99.90;;;;;;6216698;23;20510;-89
2022/01/23 18:39:01;;;;;;;0.10;0.10;;;7.40;99.90;;;;;;6218439;23;20027;-90
2022/01/23 18:41:28;;;;;;;0.10;0.10;;;7.30;99.90;;;;;;6217121;23;20020;-91
2022/01/23 18:43:55;;;;;;;0.10;0.10;;;7.30;99.90;;;;;;6219301;23;20084;-90
2022/01/23 18:46:23;;;;;;;0.10;0.10;;;7.30;99.90;;;;;;6220255;23;20024;-90
2022/01/23 18:48:51;;;;;;;0.10;0.10;;;7.30;99.90;;;;;;6217812;23;20352;-90
2022/01/23 18:51:24;;;;;;;0.10;0.10;;;7.30;99.90;;;;;;6217296;23;20339;-89
2022/01/23 18:54:07;;;;;;;0.20;0.20;;;7.30;99.90;;;;;;6192305;23;20020;-89
2022/01/23 18:56:44;;;;;;;0.05;0.05;;;7.30;99.90;;;;;;6217140;23;20406;-89
2022/01/23 18:59:14;;;;;;;0.10;0.10;;;7.30;99.90;;;;;;6215545;23;20456;-89
2022/01/23 19:01:45;;;;;;;;;;;7.30;99.90;;;;;;6191489;23;20459;-87
2022/01/23 19:04:14;;;;;;;0.10;0.10;;;7.30;99.90;;;;;;6216104;23;19920;-89
2022/01/23 19:09:33;;;;;;;0.10;0.10;;;7.30;99.90;;;;;;6217724;23;20428;-88
2022/01/23 19:12:01;;;;;;;0.10;0.10;;;;;;;;;;6216741;23;20020;-89
2022/01/23 19:14:28;;;;;;;0.20;0.20;;;7.20;99.90;;;;;;6215358;23;20070;-88
2022/01/23 19:16:58;;;;;;;0.10;0.10;;;;;;;;;;6216232;23;20032;-88
2022/01/23 19:19:46;;;;;;;0.10;0.10;;;7.20;99.90;;;;;;6215142;23;20020;-89
2022/01/23 19:22:17;;;;;;;0.10;0.10;;;7.20;99.90;;;;;;6216461;23;20024;-88
2022/01/23 19:24:46;;;;;;;0.10;0.10;;;7.20;99.90;;;;;;6217042;23;20032;-90
2022/01/23 19:27:16;;;;;;;0.10;0.10;;;7.20;99.90;;;;;;6214534;23;20028;-89
2022/01/23 19:29:44;;;;;;;0.10;0.10;;;7.20;99.90;;;;;;6226301;23;20198;-89
2022/01/23 19:32:11;;;;;;;0.10;0.10;;;7.20;99.90;;;;;;6240040;23;20509;-88
2022/01/23 19:34:40;;;;;;;0.10;0.10;;;7.20;99.90;;;;;;6216912;23;20398;-89
2022/01/23 19:37:08;;;;;;;0.10;0.10;;;7.20;99.90;;;;;;6216666;23;20024;-89
2022/01/23 19:39:37;;;;;;;0.10;0.10;;;7.20;99.90;;;;;;6216365;23;20384;-88
2022/01/23 19:42:16;;;;;;;0.10;0.10;;;7.20;99.90;;;;;;6239365;23;20021;-88
2022/01/23 19:44:48;;;;;;;0.10;0.10;;;7.20;99.90;;;;;;6188638;23;20029;-90
2022/01/23 19:47:38;;;;;;;0.10;0.10;;;7.20;99.90;;;;;;6215413;23;20024;-88
2022/01/23 19:50:06;;;;;;;0.10;0.10;;;7.20;99.90;;;;;;6215741;23;20021;-88
2022/01/23 19:52:35;;;;;;;0.10;0.10;;;7.20;99.90;;;;;;6214847;23;20031;-88
2022/01/23 19:55:04;;;;;;;0.10;0.10;;;7.20;99.90;;;;;;6240594;23;20024;-88
2022/01/23 19:57:31;;;;;;;0.10;0.10;;;7.20;99.90;;;;;;6225779;23;20021;-87
2022/01/23 19:59:58;;;;;;;0.10;0.10;;;7.20;99.90;;;;;;6216340;23;20023;-88
2022/01/23 20:02:25;;;;;;;0.00;0.00;;;7.20;99.90;;;;;;6241957;23;20020;-88
2022/01/23 20:04:53;;;;;;;0.10;0.10;;;7.20;99.90;;;;;;6215547;23;20020;-88
2022/01/23 20:07:23;;;;;;;0.10;0.10;;;7.20;99.90;;;;;;6190167;23;20452;-89
2022/01/23 20:10:06;;;;;;;;;;;7.10;99.90;;;;;;6215977;23;20455;-88
2022/01/23 20:12:45;;;;;;;0.10;0.10;;;7.20;99.90;;;;;;6215078;23;19962;-88
2022/01/23 20:15:13;;;;;;;0.10;0.10;;;7.10;99.90;;;;;;6215338;23;20020;-89
2022/01/23 20:17:41;;;;;;;0.08;0.08;;;7.10;99.90;;;;;;6216645;23;20036;-88
2022/01/23 20:20:09;;;;;;;0.10;0.10;;;7.10;99.90;;;;;;6240542;23;20078;-89
2022/01/23 20:22:37;;;;;;;0.10;0.10;;;7.10;99.90;;;;;;6215603;23;20021;-88
2022/01/23 20:25:06;;;;;;;0.10;0.10;;;7.10;99.90;;;;;;6214745;23;20328;-89
2022/01/23 20:27:35;;;;;;;0.10;0.10;;;7.10;99.90;;;;;;6241082;23;20020;-88
2022/01/23 20:30:03;;;;;;;0.10;0.10;;;7.10;99.90;;;;;;6214838;23;20013;-89
2022/01/23 20:32:29;;;;;;;0.10;0.10;;;7.10;99.90;;;;;;6215571;23;20021;-89
2022/01/23 20:34:58;;;;;;;0.10;0.10;;;7.00;99.90;;;;;;6214626;23;20020;-88
2022/01/23 20:37:25;;;;;;;0.05;0.05;;;7.00;99.90;;;;;;6240639;23;20017;-89
2022/01/23 20:39:53;;;;;;;0.10;0.10;;;7.00;99.90;;;;;;6217102;23;20043;-88
2022/01/23 20:42:21;;;;;;;0.10;0.10;;;7.00;99.90;;;;;;6215739;23;20490;-88
2022/01/23 20:44:51;;;;;;;0.10;0.10;;;7.00;99.90;;;;;;6216060;23;20384;-89
2022/01/23 20:47:18;;;;;;;0.10;0.10;;;7.00;99.90;;;;;;6189799;23;20020;-88
2022/01/23 20:49:45;;;;;;;0.10;0.10;;;7.00;99.90;;;;;;6216251;23;20313;-88
2022/01/23 20:52:32;;;;;;;0.10;0.10;;;7.10;99.90;;;;;;6187943;23;20063;-88
2022/01/23 20:55:02;;;;;;;0.10;0.10;;;7.10;99.90;;;;;;6215610;23;20082;-89
2022/01/23 20:57:31;;;;;;;0.10;0.10;;;7.00;99.90;;;;;;6215321;23;20025;-88
2022/01/23 20:59:58;;;;;;;0.10;0.10;;;;;;;;;;6215083;23;20035;-88
2022/01/23 21:02:25;;;;;;;0.03;0.03;;;7.00;99.90;;;;;;6217349;23;20391;-89
2022/01/23 21:04:52;;;;;;;0.10;0.10;;;7.00;99.90;;;;;;6215339;23;20024;-89
2022/01/23 21:07:19;;;;;;;0.10;0.10;;;7.00;99.90;;;;;;6216376;23;20074;-89
2022/01/23 21:09:47;;;;;;;0.10;0.10;;;;;;;;;;6215302;23;20020;-88
2022/01/23 21:12:18;;;;;;;0.10;0.10;;;7.10;99.90;;;;;;6216800;23;20088;-88
2022/01/23 21:15:02;;;;;;;0.10;0.10;;;7.00;99.90;;;;;;6214863;23;20498;-88
2022/01/23 21:20:28;;;;;;;0.20;0.20;;;7.00;99.90;;;;;;6214869;23;20079;-89
2022/01/23 21:41:31;;;;;;;0.10;0.10;;;;;;;;;;6216991;23;20440;-90
2022/01/23 21:43:58;;;;;;;0.10;0.10;;;7.00;99.90;;;;;;6192221;23;20016;-89
2022/01/23 21:46:26;;;;;;;0.10;0.10;;;7.00;99.90;;;;;;6192029;23;20023;-88
2022/01/23 21:48:53;;;;;;;0.10;0.10;;;;;;;;;;6192493;23;20017;-90
2022/01/23 21:51:20;;;;;;;0.10;0.10;;;7.00;99.90;;;;;;6192231;23;20029;-88
2022/01/23 21:53:47;;;;;;;0.10;0.10;;;7.00;99.90;;;;;;6217340;23;20349;-89
2022/01/23 21:56:15;;;;;;;0.10;0.10;;;7.00;99.90;;;;;;6219139;23;20025;-89
2022/01/23 21:58:42;;;;;;;0.10;0.10;;;7.00;99.90;;;;;;6217310;23;20012;-89
2022/01/23 22:01:09;;;;;;;0.10;0.10;;;7.00;99.90;;;;;;6192463;23;20024;-88
2022/01/23 22:03:37;;;;;;;0.10;0.10;;;7.00;99.90;;;;;;6192247;23;20410;-88
2022/01/23 22:06:04;;;;;;;0.10;0.10;;;7.00;99.90;;;;;;6191660;23;20020;-89
2022/01/23 22:08:31;;;;;;;0.10;0.10;;;7.00;99.90;;;;;;6191998;23;20024;-89
2022/01/23 22:11:36;;;;;;;0.10;0.10;;;7.00;99.90;;;;;;6192217;23;20398;-88
2022/01/23 22:16:36;;;;;;;0.10;0.10;;;7.00;99.90;;;;;;6218396;23;20534;-88
2022/01/23 22:19:05;;;;;;;0.10;0.10;;;6.90;99.90;;;;;;6192556;23;20024;-88
2022/01/23 22:21:47;;;;;;;0.10;0.10;;;;;;;;;;6217673;23;20020;-88
2022/01/23 22:26:44;;;;;;;0.10;0.10;;;6.90;99.90;;;;;;6218793;23;20021;-88
2022/01/23 22:29:16;;;;;;;0.20;0.20;;;6.90;99.90;;;;;;6217105;23;20444;-89
2022/01/23 22:31:45;;;;;;;0.10;0.10;;;6.90;99.90;;;;;;6191880;23;20468;-89
2022/01/23 22:34:14;;;;;;;0.10;0.10;;;6.90;99.90;;;;;;6242099;23;20460;-89
2022/01/23 22:36:41;;;;;;;0.10;0.10;;;6.90;99.90;;;;;;6242702;23;20021;-89
2022/01/23 22:39:08;;;;;;;0.10;0.10;;;6.90;99.90;;;;;;6242632;23;20020;-87
2022/01/23 22:41:36;;;;;;;0.10;0.10;;;6.90;99.90;;;;;;6217235;23;20329;-88
2022/01/23 22:44:10;;;;;;;0.10;0.10;;;7.00;99.90;;;;;;6192966;23;20024;-88
2022/01/23 22:46:37;;;;;;;0.10;0.10;;;6.90;99.90;;;;;;6242700;23;20087;-88
2022/01/23 22:49:06;;;;;;;0.10;0.10;;;6.90;99.90;;;;;;6242533;23;20518;-88
2022/01/23 22:51:35;;;;;;;0.10;0.10;;;6.90;99.90;;;;;;6191388;23;20099;-88
2022/01/23 22:54:03;;;;;;;0.10;0.10;;;6.90;99.90;;;;;;6217397;23;20074;-88
2022/01/23 22:56:35;;;;;;;0.10;0.10;;;6.90;99.90;;;;;;6241482;23;20021;-88
2022/01/23 22:59:02;;;;;;;0.10;0.10;;;6.80;99.90;;;;;;6242753;23;20023;-88
2022/01/23 23:01:30;;;;;;;0.10;0.10;;;6.90;99.90;;;;;;6216401;23;20024;-88
2022/01/23 23:03:57;;;;;;;0.10;0.10;;;6.90;99.90;;;;;;6217601;23;20057;-88
2022/01/23 23:06:25;;;;;;;0.10;0.10;;;6.90;99.90;;;;;;6191917;23;20541;-88
2022/01/23 23:08:54;;;;;;;0.10;0.10;;;6.90;99.90;;;;;;6218622;23;20070;-88
2022/01/23 23:11:21;;;;;;;0.10;0.10;;;6.90;99.90;;;;;;6216938;23;20039;-88
2022/01/23 23:13:49;;;;;;;0.10;0.10;;;6.90;99.90;;;;;;6217204;23;20024;-88
2022/01/23 23:16:22;;;;;;;0.10;0.10;;;6.90;99.90;;;;;;6216196;23;20021;-88
2022/01/23 23:21:29;;;;;;;0.10;0.10;;;6.90;99.90;;;;;;6219345;23;20082;-90
2022/01/23 23:23:58;;;;;;;0.10;0.10;;;6.90;99.90;;;;;;6222052;23;20020;-90
2022/01/23 23:26:26;;;;;;;0.10;0.10;;;6.80;99.90;;;;;;6221104;23;20021;-90
2022/01/23 23:28:54;;;;;;;0.10;0.10;;;6.80;99.90;;;;;;6247484;23;20012;-91
2022/01/23 23:31:22;;;;;;;0.10;0.10;;;6.90;99.90;;;;;;6247530;23;20040;-91
2022/01/23 23:33:52;;;;;;;0.10;0.10;;;6.90;99.90;;;;;;6223152;23;20028;-90
2022/01/23 23:36:20;;;;;;;0.10;0.10;;;6.80;99.90;;;;;;6222573;23;20025;-90
2022/01/23 23:38:47;;;;;;;0.10;0.10;;;6.80;99.90;;;;;;6222714;23;20029;-90
2022/01/23 23:41:26;;;;;;;0.05;0.05;;;6.90;99.90;;;;;;6223121;23;20024;-90
2022/01/23 23:46:35;;;;;;;0.10;0.10;;;6.90;99.90;;;;;;6249085;23;20071;-91
2022/01/23 23:49:19;;;;;;;0.10;0.10;;;6.90;99.90;;;;;;6221202;23;20018;-90
2022/01/23 23:51:48;;;;;;;0.10;0.10;;;6.90;99.90;;;;;;6195694;23;20043;-90
2022/01/23 23:54:15;;;;;;;0.10;0.10;;;6.90;99.90;;;;;;6196096;23;20411;-90
2022/01/23 23:56:48;;;;;;;0.10;0.10;;;7.40;99.90;;;;;;6195358;23;20409;-90
2022/01/23 23:59:15;;;;;;;0.10;0.10;;;6.90;99.90;;;;;;6196858;23;20032;-90
